Time;durP1;ratioP1;P1;durP2;ratioP2;P2;SDS_P1;SDS_P2;PMS_P1;PMS_P2;Temp;Humidity;BMP_temperature;BMP_pressure;BME280_temperature;BME280_humidity;BME280_pressure;Samples;Min_cycle;Max_cycle;Signal;HPM_P1;HPM_P2
2023/06/08 16:44:50;;;;;;;1.23;1.13;;;;;;;;;;7409159;19;20144;-93
2023/06/08 16:47:18;;;;;;;0.82;0.82;;;;;;;;;;7391473;19;20714;-90
2023/06/08 16:49:45;;;;;;;1.00;0.93;;;;;;;;;;7395131;19;20133;-83
2023/06/08 16:52:12;;;;;;;0.70;0.70;;;;;;;;;;7394190;19;20156;-85
2023/06/08 16:54:38;;;;;;;0.55;0.55;;;;;;;;;;7396112;19;20129;-87
2023/06/08 16:57:05;;;;;;;0.73;0.73;;;;;;;;;;7396747;19;20141;-85
2023/06/08 16:59:32;;;;;;;1.00;0.90;;;;;;;;;;7398254;19;20133;-86
2023/06/08 17:02:07;;;;;;;1.20;1.08;;;;;;;;;;7398719;19;20240;-87
2023/06/08 17:04:34;;;;;;;0.70;0.70;;;;;;;;;;7399283;19;20140;-88
2023/06/08 17:07:00;;;;;;;0.60;0.60;;;;;;;;;;7400223;19;20129;-88
2023/06/08 17:09:27;;;;;;;0.82;0.82;;;;;;;;;;7398554;19;20514;-88
2023/06/08 17:11:54;;;;;;;0.50;0.50;;;;;;;;;;7402176;19;20149;-88
2023/06/08 17:14:21;;;;;;;0.73;0.73;;;;;;;;;;7399966;19;20151;-89
2023/06/08 17:16:47;;;;;;;0.77;0.77;;;;;;;;;;7398925;19;20149;-88
2023/06/08 17:19:18;;;;;;;0.98;0.98;;;;;;;;;;7397328;19;20658;-89
2023/06/08 17:21:51;;;;;;;0.90;0.90;;;;;;;;;;7398073;19;20180;-89
2023/06/08 17:24:20;;;;;;;1.27;1.20;;;;;;;;;;7397794;19;20555;-88
2023/06/08 17:26:47;;;;;;;0.80;0.80;;;;;;;;;;7394291;19;20137;-89
2023/06/08 17:29:14;;;;;;;0.90;0.90;;;;;;;;;;7395329;19;20143;-88
2023/06/08 17:31:41;;;;;;;0.75;0.75;;;;;;;;;;7395689;19;20185;-89
2023/06/08 17:34:12;;;;;;;0.60;0.60;;;;;;;;;;7396993;19;20137;-89
2023/06/08 17:36:39;;;;;;;0.73;0.73;;;;;;;;;;7398550;19;20145;-88
2023/06/08 17:39:16;;;;;;;1.60;1.02;;;;;;;;;;7399873;19;20498;-90
2023/06/08 17:41:43;;;;;;;0.57;0.57;;;;;;;;;;7392571;19;20172;-89
2023/06/08 17:44:32;;;;;;;0.95;0.95;;;;;;;;;;7393727;19;20527;-89
2023/06/08 17:46:58;;;;;;;0.90;0.90;;;;;;;;;;7393761;19;20158;-89
2023/06/08 17:49:25;;;;;;;0.80;0.80;;;;;;;;;;7388971;19;20137;-90
2023/06/08 17:51:52;;;;;;;0.52;0.52;;;;;;;;;;7386676;19;20149;-89
2023/06/08 17:54:19;;;;;;;0.70;0.70;;;;;;;;;;7394675;19;20137;-89
2023/06/08 17:56:46;;;;;;;0.70;0.70;;;;;;;;;;7400116;19;20200;-89
2023/06/08 17:59:13;;;;;;;1.65;1.55;;;;;;;;;;7397208;19;20466;-87
2023/06/08 18:01:41;;;;;;;1.40;0.95;;;;;;;;;;7388653;19;20145;-88
2023/06/08 18:04:55;;;;;;;0.80;0.80;;;;;;;;;;7395694;19;20145;-89
2023/06/08 18:08:57;;;;;;;;;;;;;;;;;;;;;
2023/06/08 18:22:22;;;;;;;1.23;1.23;;;;;;;;;;7388797;19;20180;-88
2023/06/08 18:24:54;;;;;;;0.60;0.60;;;;;;;;;;7383881;19;20749;-89
2023/06/08 18:27:21;;;;;;;0.98;0.98;;;;;;;;;;7387039;19;20137;-88
2023/06/08 18:29:47;;;;;;;1.00;1.00;;;;;;;;;;7393242;19;20148;-87
2023/06/08 18:32:14;;;;;;;0.75;0.75;;;;;;;;;;7389028;19;20176;-85
2023/06/08 18:34:43;;;;;;;1.23;1.10;;;;;;;;;;7400179;19;20493;-87
2023/06/08 18:40:43;;;;;;;1.58;0.70;;;;;;;;;;7397776;19;20214;-90
2023/06/08 18:43:09;;;;;;;0.43;0.43;;;;;;;;;;7397607;19;20152;-89
2023/06/08 18:45:36;;;;;;;0.77;0.77;;;;;;;;;;7399421;19;20201;-88
2023/06/08 18:48:03;;;;;;;1.17;1.05;;;;;;;;;;7396846;19;20133;-86
2023/06/08 18:50:30;;;;;;;0.85;0.85;;;;;;;;;;7397103;19;20136;-90
2023/06/08 18:52:56;;;;;;;1.23;1.13;;;;;;;;;;7394002;19;20135;-90
2023/06/08 18:55:23;;;;;;;0.80;0.80;;;;;;;;;;7402824;19;20493;-86
2023/06/08 18:57:53;;;;;;;1.25;1.15;;;;;;;;;;7398701;19;20213;-89
2023/06/08 19:00:22;;;;;;;0.82;0.82;;;;;;;;;;7393676;19;20224;-89
2023/06/08 19:02:49;;;;;;;0.88;0.88;;;;;;;;;;7395259;19;20172;-89
2023/06/08 19:05:16;;;;;;;0.75;0.60;;;;;;;;;;7391834;19;20213;-90
2023/06/08 19:07:43;;;;;;;1.27;1.20;;;;;;;;;;7396179;19;20165;-89
2023/06/08 19:10:10;;;;;;;0.60;0.60;;;;;;;;;;7397986;19;20653;-90
2023/06/08 19:12:50;;;;;;;0.77;0.77;;;;;;;;;;7408304;19;20183;-90
2023/06/08 19:15:29;;;;;;;1.20;1.10;;;;;;;;;;7408610;19;20137;-90
2023/06/08 19:18:43;;;;;;;0.68;0.68;;;;;;;;;;7397796;19;20136;-91
2023/06/08 19:25:36;;;;;;;0.82;0.82;;;;;;;;;;7395751;19;20113;-90
2023/06/08 19:28:30;;;;;;;0.85;0.85;;;;;;;;;;7394109;19;20208;-89
2023/06/08 19:30:57;;;;;;;1.13;1.13;;;;;;;;;;7386455;19;20168;-90
2023/06/08 19:33:23;;;;;;;0.68;0.68;;;;;;;;;;7396575;19;20133;-89
2023/06/08 19:35:50;;;;;;;0.88;0.57;;;;;;;;;;7430399;19;20129;-94
2023/06/08 19:38:17;;;;;;;1.30;1.13;;;;;;;;;;7432807;19;20153;-95
2023/06/08 19:40:44;;;;;;;1.00;0.77;;;;;;;;;;7428581;19;20133;-95
2023/06/08 19:43:11;;;;;;;1.35;1.25;;;;;;;;;;7426753;19;20136;-93
2023/06/08 19:45:38;;;;;;;0.65;0.65;;;;;;;;;;7402182;19;20137;-91
2023/06/08 19:48:05;;;;;;;0.73;0.73;;;;;;;;;;7398357;19;20267;-92
2023/06/08 19:50:32;;;;;;;0.93;0.93;;;;;;;;;;7400188;19;20167;-92
2023/06/08 19:52:59;;;;;;;0.55;0.55;;;;;;;;;;7395628;19;20204;-92
2023/06/08 19:55:26;;;;;;;0.63;0.63;;;;;;;;;;7399517;19;20150;-91
2023/06/08 19:57:53;;;;;;;1.65;0.60;;;;;;;;;;7398766;19;20224;-93
2023/06/08 20:00:20;;;;;;;0.50;0.50;;;;;;;;;;7397054;19;20137;-92
2023/06/08 20:02:47;;;;;;;0.60;0.60;;;;;;;;;;7396930;19;20260;-92
2023/06/08 20:05:13;;;;;;;0.73;0.73;;;;;;;;;;7399296;19;20174;-92
2023/06/08 20:07:40;;;;;;;0.75;0.75;;;;;;;;;;7402137;19;20134;-91
2023/06/08 20:10:08;;;;;;;0.77;0.77;;;;;;;;;;7399048;19;20145;-90
2023/06/08 20:12:35;;;;;;;0.77;0.77;;;;;;;;;;7396358;19;20159;-91
2023/06/08 20:15:01;;;;;;;0.60;0.60;;;;;;;;;;7403971;19;20140;-91
2023/06/08 20:17:28;;;;;;;0.47;0.47;;;;;;;;;;7402913;19;20200;-91
2023/06/08 20:19:55;;;;;;;0.55;0.50;;;;;;;;;;7402871;19;20141;-92
2023/06/08 20:22:22;;;;;;;0.85;0.85;;;;;;;;;;7394765;19;20175;-89
2023/06/08 20:24:49;;;;;;;1.00;1.00;;;;;;;;;;7398844;19;20135;-90
2023/06/08 20:27:16;;;;;;;1.48;0.85;;;;;;;;;;7395974;19;20145;-90
2023/06/08 20:29:43;;;;;;;0.77;0.77;;;;;;;;;;7390689;19;20149;-90
2023/06/08 20:32:09;;;;;;;0.95;0.95;;;;;;;;;;7390449;19;20165;-90
2023/06/08 20:34:36;;;;;;;1.33;1.25;;;;;;;;;;7396809;19;20140;-90
2023/06/08 20:37:03;;;;;;;1.27;0.73;;;;;;;;;;7398527;19;20137;-90
2023/06/08 20:39:31;;;;;;;0.43;0.43;;;;;;;;;;7397579;19;20143;-90
2023/06/08 20:41:57;;;;;;;2.47;0.93;;;;;;;;;;7397113;19;20242;-90
2023/06/08 20:44:24;;;;;;;0.60;0.60;;;;;;;;;;7396242;19;20125;-91
2023/06/08 20:46:51;;;;;;;0.65;0.65;;;;;;;;;;7400365;19;20133;-90
2023/06/08 20:49:18;;;;;;;0.65;0.65;;;;;;;;;;7398394;19;20145;-90
2023/06/08 20:51:46;;;;;;;0.60;0.60;;;;;;;;;;7398839;19;20152;-90
2023/06/08 20:54:13;;;;;;;0.73;0.73;;;;;;;;;;7399539;19;20142;-90
2023/06/08 20:56:40;;;;;;;1.48;1.38;;;;;;;;;;7397851;19;20488;-90
2023/06/08 20:59:07;;;;;;;1.08;1.02;;;;;;;;;;7398214;19;20558;-90
2023/06/08 21:01:35;;;;;;;0.75;0.75;;;;;;;;;;7395102;19;20610;-91
2023/06/08 21:04:02;;;;;;;0.50;0.50;;;;;;;;;;7394057;19;20129;-91
2023/06/08 21:06:29;;;;;;;1.77;0.90;;;;;;;;;;7396529;19;20145;-91
2023/06/08 21:08:56;;;;;;;1.15;1.05;;;;;;;;;;7397011;19;20141;-92
2023/06/08 21:11:23;;;;;;;0.70;0.70;;;;;;;;;;7396067;19;20163;-92
2023/06/08 21:13:50;;;;;;;1.13;0.90;;;;;;;;;;7396325;19;20130;-91
2023/06/08 21:16:17;;;;;;;1.13;1.02;;;;;;;;;;7397633;19;20149;-91
2023/06/08 21:18:43;;;;;;;0.77;0.77;;;;;;;;;;7398903;19;20137;-91
2023/06/08 21:21:11;;;;;;;0.50;0.50;;;;;;;;;;7395428;19;20163;-91
2023/06/08 21:23:38;;;;;;;0.98;0.73;;;;;;;;;;7393676;19;20137;-91
2023/06/08 21:26:05;;;;;;;1.02;0.93;;;;;;;;;;7394931;19;20154;-91
2023/06/08 21:28:31;;;;;;;1.33;1.17;;;;;;;;;;7393188;19;20141;-91
2023/06/08 21:30:58;;;;;;;0.68;0.68;;;;;;;;;;7390146;19;20144;-92
2023/06/08 21:33:27;;;;;;;0.50;0.50;;;;;;;;;;7395153;19;20237;-92
2023/06/08 21:35:54;;;;;;;0.88;0.88;;;;;;;;;;7396416;19;20151;-92
2023/06/08 21:38:36;;;;;;;0.85;0.85;;;;;;;;;;7397719;19;20137;-91
2023/06/08 21:41:03;;;;;;;1.85;1.10;;;;;;;;;;7395306;19;20644;-92
2023/06/08 21:43:29;;;;;;;1.45;1.00;;;;;;;;;;7394382;19;20137;-91
2023/06/08 21:45:56;;;;;;;0.60;0.60;;;;;;;;;;7391000;19;20125;-92
2023/06/08 21:48:23;;;;;;;1.35;1.25;;;;;;;;;;7389485;19;20152;-91
2023/06/08 21:50:49;;;;;;;0.60;0.60;;;;;;;;;;7390065;19;20166;-91
2023/06/08 21:53:16;;;;;;;0.60;0.60;;;;;;;;;;7394166;19;20181;-92
2023/06/08 21:55:43;;;;;;;0.50;0.50;;;;;;;;;;7394320;19;20164;-91
2023/06/08 21:58:10;;;;;;;0.50;0.50;;;;;;;;;;7394779;19;20147;-91
2023/06/08 22:00:37;;;;;;;0.60;0.60;;;;;;;;;;7396896;19;20148;-91
2023/06/08 22:03:04;;;;;;;0.77;0.77;;;;;;;;;;7395281;19;20162;-91
2023/06/08 22:05:30;;;;;;;1.35;1.27;;;;;;;;;;7391613;19;20149;-91
2023/06/08 22:07:58;;;;;;;1.55;1.45;;;;;;;;;;7392895;19;20121;-91
2023/06/08 22:10:25;;;;;;;0.65;0.65;;;;;;;;;;7392375;19;20208;-92
2023/06/08 22:12:54;;;;;;;0.82;0.82;;;;;;;;;;7392690;19;20213;-92
2023/06/08 22:15:21;;;;;;;1.05;0.88;;;;;;;;;;7392009;19;20771;-92
2023/06/08 22:17:49;;;;;;;0.70;0.70;;;;;;;;;;7394626;19;20623;-92
2023/06/08 22:20:17;;;;;;;1.23;0.50;;;;;;;;;;7395330;19;20149;-92
2023/06/08 22:22:44;;;;;;;1.65;1.00;;;;;;;;;;7391283;19;20157;-92
2023/06/08 22:25:10;;;;;;;1.25;1.00;;;;;;;;;;7394566;19;20162;-93
2023/06/08 22:27:39;;;;;;;0.55;0.55;;;;;;;;;;7392948;19;20613;-93
2023/06/08 22:30:07;;;;;;;0.57;0.57;;;;;;;;;;7394119;19;20140;-92
2023/06/08 22:32:34;;;;;;;0.85;0.85;;;;;;;;;;7391710;19;20220;-92
2023/06/08 22:35:01;;;;;;;0.98;0.98;;;;;;;;;;7400069;19;20132;-91
2023/06/08 22:37:28;;;;;;;2.97;0.63;;;;;;;;;;7400279;19;20141;-91
2023/06/08 22:39:54;;;;;;;1.02;1.02;;;;;;;;;;7398688;19;20140;-92
2023/06/08 22:42:21;;;;;;;0.43;0.43;;;;;;;;;;7396869;19;20197;-92
2023/06/08 22:44:49;;;;;;;0.85;0.85;;;;;;;;;;7395203;19;20563;-91
2023/06/08 22:47:16;;;;;;;0.73;0.73;;;;;;;;;;7390284;19;20132;-93
2023/06/08 22:49:46;;;;;;;1.10;1.02;;;;;;;;;;7392113;19;20677;-92
2023/06/08 22:52:15;;;;;;;3.83;1.13;;;;;;;;;;7391575;19;20157;-92
2023/06/08 22:54:42;;;;;;;0.50;0.50;;;;;;;;;;7395052;19;20215;-91
2023/06/08 22:57:09;;;;;;;0.80;0.80;;;;;;;;;;7394627;19;20133;-92
2023/06/08 22:59:36;;;;;;;0.90;0.85;;;;;;;;;;7393121;19;20180;-91
2023/06/08 23:02:03;;;;;;;0.85;0.85;;;;;;;;;;7392066;19;20646;-92
2023/06/08 23:04:33;;;;;;;0.60;0.60;;;;;;;;;;7395340;19;20120;-92
2023/06/08 23:07:02;;;;;;;0.50;0.50;;;;;;;;;;7393843;19;20961;-92
2023/06/08 23:09:29;;;;;;;0.85;0.85;;;;;;;;;;7393739;19;20148;-91
2023/06/08 23:12:00;;;;;;;0.65;0.65;;;;;;;;;;7389156;19;20621;-91
2023/06/08 23:14:27;;;;;;;1.50;1.08;;;;;;;;;;7393462;19;20139;-91
2023/06/08 23:16:54;;;;;;;0.70;0.70;;;;;;;;;;7390647;19;20137;-91
2023/06/08 23:19:21;;;;;;;1.00;1.00;;;;;;;;;;7389865;19;20184;-91
2023/06/08 23:21:48;;;;;;;0.55;0.55;;;;;;;;;;7388444;19;20145;-92
2023/06/08 23:24:16;;;;;;;0.75;0.75;;;;;;;;;;7389679;19;20145;-92
2023/06/08 23:26:43;;;;;;;0.50;0.50;;;;;;;;;;7389436;19;20129;-93
2023/06/08 23:29:10;;;;;;;0.60;0.60;;;;;;;;;;7387638;19;20137;-90
2023/06/08 23:31:36;;;;;;;0.65;0.65;;;;;;;;;;7387573;19;20185;-92
2023/06/08 23:34:04;;;;;;;0.75;0.63;;;;;;;;;;7390025;19;20129;-91
2023/06/08 23:36:31;;;;;;;1.17;1.17;;;;;;;;;;7389772;19;20161;-92
2023/06/08 23:38:57;;;;;;;1.33;1.23;;;;;;;;;;7390132;19;20145;-93
2023/06/08 23:41:24;;;;;;;0.55;0.55;;;;;;;;;;7386498;19;20168;-92
2023/06/08 23:43:51;;;;;;;1.05;1.05;;;;;;;;;;7389093;19;20148;-91
2023/06/08 23:46:18;;;;;;;0.77;0.77;;;;;;;;;;7388577;19;20145;-92
2023/06/08 23:48:45;;;;;;;0.55;0.55;;;;;;;;;;7389524;19;20465;-93
2023/06/08 23:51:12;;;;;;;1.75;0.88;;;;;;;;;;7388999;19;20148;-91
2023/06/08 23:53:38;;;;;;;1.02;1.02;;;;;;;;;;7389859;19;20141;-92
2023/06/08 23:56:23;;;;;;;0.60;0.60;;;;;;;;;;7390574;19;20602;-92
2023/06/08 23:58:51;;;;;;;1.55;1.45;;;;;;;;;;7390563;19;20133;-92
